createdAt,value
2022-08-27T00:02:27.279Z,17.53
2022-08-27T00:04:57.569Z,18.35
2022-08-27T00:07:27.249Z,15.82
2022-08-27T00:09:56.828Z,18.05
2022-08-27T00:12:29.029Z,16.40
2022-08-27T00:14:59.062Z,15.25
2022-08-27T00:17:29.269Z,24.60
2022-08-27T00:19:58.998Z,20.02
2022-08-27T00:22:28.654Z,18.55
2022-08-27T00:24:58.355Z,18.67
2022-08-27T00:27:30.858Z,21.17
2022-08-27T00:30:00.535Z,22.58
2022-08-27T00:32:30.299Z,37.08
2022-08-27T00:35:00.086Z,32.13
2022-08-27T00:37:29.927Z,35.90
2022-08-27T00:39:59.706Z,34.33
2022-08-27T00:42:32.143Z,34.22
2022-08-27T00:45:02.173Z,32.50
2022-08-27T00:47:33.696Z,35.22
2022-08-27T00:50:07.287Z,31.15
2022-08-27T00:52:39.881Z,31.10
2022-08-27T00:55:12.599Z,40.15
2022-08-27T00:57:46.366Z,36.37
2022-08-27T01:00:19.030Z,34.50
2022-08-27T01:02:49.356Z,32.90
2022-08-27T01:05:21.872Z,32.03
2022-08-27T01:07:53.539Z,29.58
2022-08-27T01:10:25.381Z,28.27
2022-08-27T01:12:57.861Z,25.83
2022-08-27T01:15:32.205Z,24.08
2022-08-27T01:18:02.696Z,23.73
2022-08-27T01:20:34.955Z,19.83
2022-08-27T01:23:09.952Z,21.45
2022-08-27T01:25:44.439Z,21.35
2022-08-27T01:28:14.399Z,23.25
2022-08-27T01:30:44.895Z,20.15
2022-08-27T01:33:16.534Z,20.58
2022-08-27T01:35:47.294Z,20.13
2022-08-27T01:38:30.360Z,19.38
2022-08-27T01:41:04.390Z,18.00
2022-08-27T01:43:34.082Z,21.83
2022-08-27T01:46:03.775Z,15.93
2022-08-27T01:48:33.462Z,15.45
2022-08-27T01:51:03.093Z,18.73
2022-08-27T01:53:33.979Z,16.88
2022-08-27T01:56:07.764Z,20.90
2022-08-27T01:58:37.438Z,18.40
2022-08-27T02:01:10.762Z,21.35
2022-08-27T02:03:41.827Z,18.88
2022-08-27T02:06:13.912Z,18.85
2022-08-27T02:08:43.882Z,17.23
2022-08-27T02:11:16.123Z,16.27
2022-08-27T02:13:46.106Z,17.80
2022-08-27T02:16:16.427Z,21.80
2022-08-27T02:18:47.333Z,14.95
2022-08-27T02:21:17.995Z,16.60
2022-08-27T02:23:47.687Z,13.30
2022-08-27T02:26:20.000Z,16.50
2022-08-27T02:28:49.639Z,14.23
2022-08-27T02:31:19.670Z,14.45
2022-08-27T02:33:49.425Z,15.55
2022-08-27T02:36:20.179Z,14.82
2022-08-27T02:38:50.085Z,16.33
2022-08-27T02:41:22.318Z,14.30
2022-08-27T02:43:52.001Z,20.50
2022-08-27T02:46:21.747Z,17.52
2022-08-27T02:48:51.528Z,15.13
2022-08-27T02:51:21.233Z,15.95
2022-08-27T02:53:51.866Z,14.90
2022-08-27T02:56:24.412Z,20.23
2022-08-27T02:58:54.107Z,15.05
2022-08-27T03:01:23.953Z,18.63
2022-08-27T03:03:53.659Z,12.10
2022-08-27T03:06:23.376Z,14.65
2022-08-27T03:08:53.651Z,19.87
2022-08-27T03:11:26.117Z,15.40
2022-08-27T03:13:56.252Z,17.90
2022-08-27T03:16:25.968Z,13.48
2022-08-27T03:18:53.219Z,13.48
2022-08-27T03:21:25.132Z,15.33
2022-08-27T03:23:55.291Z,16.30
2022-08-27T03:26:28.241Z,15.80
2022-08-27T03:28:57.936Z,12.97
2022-08-27T03:31:29.433Z,15.18
2022-08-27T03:34:01.016Z,17.60
2022-08-27T03:36:32.474Z,14.52
2022-08-27T03:39:02.164Z,13.27
2022-08-27T03:41:54.266Z,11.88
2022-08-27T03:44:24.135Z,11.93
2022-08-27T03:46:54.579Z,13.18
2022-08-27T03:49:24.773Z,11.43
2022-08-27T03:51:56.241Z,14.95
2022-08-27T03:54:26.117Z,14.68
2022-08-27T03:56:58.453Z,17.70
2022-08-27T03:59:28.131Z,15.07
2022-08-27T04:01:57.813Z,11.55
2022-08-27T04:04:28.002Z,10.80
2022-08-27T04:06:59.069Z,14.63
2022-08-27T04:09:28.890Z,14.63
2022-08-27T04:12:01.154Z,14.38
2022-08-27T04:14:31.013Z,9.45
2022-08-27T04:17:00.847Z,11.68
2022-08-27T04:19:33.179Z,12.88
2022-08-27T04:22:03.978Z,13.52
2022-08-27T04:24:35.099Z,15.40
2022-08-27T04:27:08.743Z,12.23
2022-08-27T04:29:38.696Z,13.23
2022-08-27T04:32:09.934Z,11.75
2022-08-27T04:34:39.718Z,15.70
2022-08-27T04:37:09.824Z,7.95
2022-08-27T04:39:39.751Z,12.52
2022-08-27T04:42:12.219Z,12.43
2022-08-27T04:44:41.894Z,16.00
2022-08-27T04:47:11.606Z,12.43
2022-08-27T04:49:41.293Z,14.65
2022-08-27T04:52:11.176Z,12.52
2022-08-27T04:54:40.918Z,13.50
2022-08-27T04:57:13.305Z,11.40
2022-08-27T04:59:45.580Z,11.37
2022-08-27T05:02:15.287Z,15.77
2022-08-27T05:04:46.088Z,14.80
2022-08-27T05:07:15.794Z,11.13
2022-08-27T05:09:45.501Z,11.57
2022-08-27T05:12:17.855Z,13.73
2022-08-27T05:14:47.559Z,12.73
2022-08-27T05:17:17.225Z,11.52
2022-08-27T05:19:46.851Z,9.18
2022-08-27T05:22:16.476Z,13.88
2022-08-27T05:24:50.016Z,9.60
2022-08-27T05:27:22.807Z,10.15
2022-08-27T05:29:52.499Z,14.82
2022-08-27T05:32:22.149Z,10.70
2022-08-27T05:34:51.829Z,12.07
2022-08-27T05:37:21.485Z,15.10
2022-08-27T05:39:51.339Z,11.50
2022-08-27T05:42:23.582Z,9.32
2022-08-27T05:44:53.458Z,12.02
2022-08-27T05:47:23.132Z,15.02
2022-08-27T05:49:54.589Z,10.30
2022-08-27T05:52:24.543Z,11.98
2022-08-27T05:54:54.316Z,13.60
2022-08-27T05:57:26.622Z,16.67
2022-08-27T06:00:08.647Z,13.98
2022-08-27T06:02:46.137Z,15.45
2022-08-27T06:05:15.913Z,13.70
2022-08-27T06:07:45.574Z,10.23
2022-08-27T06:10:15.801Z,16.73
2022-08-27T06:12:48.100Z,11.75
2022-08-27T06:15:17.854Z,12.88
2022-08-27T06:17:47.439Z,12.60
2022-08-27T06:20:17.191Z,11.13
2022-08-27T06:22:47.492Z,12.85
2022-08-27T06:25:17.185Z,17.27
2022-08-27T06:27:49.451Z,11.47
2022-08-27T06:30:19.203Z,9.63
2022-08-27T06:32:48.835Z,12.75
2022-08-27T06:35:18.836Z,12.50
2022-08-27T06:37:48.457Z,13.65
2022-08-27T06:40:18.426Z,14.48
2022-08-27T06:42:51.201Z,14.30
2022-08-27T06:45:20.983Z,12.20
2022-08-27T06:47:50.643Z,15.20
2022-08-27T06:50:24.266Z,13.20
2022-08-27T06:52:56.456Z,15.15
2022-08-27T06:55:26.232Z,15.05
2022-08-27T06:57:58.517Z,13.48
2022-08-27T07:00:28.233Z,13.93
2022-08-27T07:02:58.031Z,14.05
2022-08-27T07:05:29.093Z,13.20
2022-08-27T07:07:58.852Z,11.95
2022-08-27T07:10:28.532Z,14.55
2022-08-27T07:13:01.073Z,12.00
2022-08-27T07:15:30.892Z,14.10
2022-08-27T07:18:02.421Z,9.63
2022-08-27T07:20:35.068Z,13.50
2022-08-27T07:23:07.374Z,11.90
2022-08-27T07:25:40.266Z,14.95
2022-08-27T07:28:12.759Z,12.70
2022-08-27T07:30:42.880Z,11.30
2022-08-27T07:33:13.013Z,17.20
2022-08-27T07:35:42.730Z,11.88
2022-08-27T07:38:12.924Z,18.50
2022-08-27T07:40:43.848Z,19.02
2022-08-27T07:43:28.570Z,12.63
2022-08-27T07:45:58.669Z,11.88
2022-08-27T07:48:28.960Z,11.87
2022-08-27T07:50:58.607Z,13.45
2022-08-27T07:53:28.380Z,14.80
2022-08-27T07:55:58.096Z,11.52
2022-08-27T07:58:30.358Z,13.30
2022-08-27T08:01:00.220Z,13.97
2022-08-27T08:03:30.307Z,10.82
2022-08-27T08:06:00.315Z,10.93
2022-08-27T08:08:29.997Z,12.73
2022-08-27T08:11:00.572Z,13.73
2022-08-27T08:13:32.886Z,10.70
2022-08-27T08:16:02.509Z,14.48
2022-08-27T08:18:32.256Z,11.45
2022-08-27T08:21:05.958Z,14.80
2022-08-27T08:23:35.937Z,11.32
2022-08-27T08:26:05.793Z,13.43
2022-08-27T08:28:38.702Z,15.65
2022-08-27T08:31:09.108Z,12.85
2022-08-27T08:33:39.319Z,16.67
2022-08-27T08:36:11.406Z,13.23
2022-08-27T08:38:41.683Z,12.90
2022-08-27T08:41:34.610Z,12.52
2022-08-27T08:44:14.532Z,10.77
2022-08-27T08:46:49.542Z,11.35
2022-08-27T08:49:29.337Z,10.98
2022-08-27T08:52:01.337Z,13.87
2022-08-27T08:54:33.365Z,9.70
2022-08-27T08:57:07.792Z,12.10
2022-08-27T08:59:42.596Z,12.50
2022-08-27T09:02:15.975Z,11.35
2022-08-27T09:04:45.981Z,11.45
2022-08-27T09:07:19.575Z,13.07
2022-08-27T09:09:51.123Z,14.27
2022-08-27T09:12:25.099Z,13.80
2022-08-27T09:15:01.847Z,15.90
2022-08-27T09:17:31.544Z,10.90
2022-08-27T09:20:01.448Z,9.95
2022-08-27T09:22:42.425Z,13.45
2022-08-27T09:25:21.032Z,10.82
2022-08-27T09:27:52.162Z,11.70
2022-08-27T09:30:30.577Z,12.50
2022-08-27T09:33:02.674Z,9.70
2022-08-27T09:35:39.355Z,11.13
2022-08-27T09:38:09.086Z,11.35
2022-08-27T09:40:44.493Z,11.48
2022-08-27T09:43:24.856Z,12.18
2022-08-27T09:45:59.676Z,11.83
2022-08-27T09:48:31.760Z,8.63
2022-08-27T09:51:03.798Z,10.00
2022-08-27T09:53:36.285Z,7.65
2022-08-27T09:56:07.787Z,9.40
2022-08-27T09:58:51.718Z,8.63
2022-08-27T10:01:26.723Z,7.22
2022-08-27T10:04:07.411Z,9.45
2022-08-27T10:06:37.839Z,9.07
2022-08-27T10:09:12.835Z,7.85
2022-08-27T10:11:45.248Z,12.38
2022-08-27T10:14:19.198Z,6.03
2022-08-27T10:17:11.271Z,6.93
2022-08-27T10:19:49.726Z,9.82
2022-08-27T10:22:31.450Z,14.80
2022-08-27T10:25:10.148Z,9.80
2022-08-27T10:27:45.524Z,11.30
2022-08-27T10:30:17.104Z,7.72
2022-08-27T10:32:59.284Z,14.40
2022-08-27T10:35:47.941Z,7.90
2022-08-27T10:38:42.395Z,10.10
2022-08-27T10:41:19.561Z,9.57
2022-08-27T10:44:17.890Z,14.32
2022-08-27T10:47:03.094Z,8.85
2022-08-27T10:49:40.583Z,9.93
2022-08-27T10:52:18.257Z,8.73
2022-08-27T10:54:53.198Z,8.10
2022-08-27T10:57:45.764Z,14.07
2022-08-27T11:00:22.579Z,9.02
2022-08-27T11:02:55.792Z,9.00
2022-08-27T11:05:31.298Z,8.00
2022-08-27T11:08:05.332Z,10.70
2022-08-27T11:10:37.326Z,6.53
2022-08-27T11:13:09.266Z,15.68
2022-08-27T11:15:41.454Z,7.45
2022-08-27T11:18:16.633Z,8.70
2022-08-27T11:20:57.080Z,6.15
2022-08-27T11:23:30.371Z,9.88
2022-08-27T11:26:03.966Z,8.40
2022-08-27T11:28:38.808Z,6.43
2022-08-27T11:31:13.062Z,5.93
2022-08-27T11:33:47.457Z,10.02
2022-08-27T11:36:37.881Z,8.30
2022-08-27T11:39:08.664Z,5.70
2022-08-27T11:41:51.823Z,10.15
2022-08-27T11:44:23.697Z,7.72
2022-08-27T11:46:56.660Z,11.60
2022-08-27T11:49:31.927Z,9.15
2022-08-27T11:52:07.274Z,9.40
2022-08-27T11:54:48.193Z,7.30
2022-08-27T11:57:19.423Z,8.47
2022-08-27T11:59:50.697Z,8.07
2022-08-27T12:02:26.183Z,6.25
2022-08-27T12:04:57.766Z,5.78
2022-08-27T12:07:32.750Z,8.60
2022-08-27T12:10:17.223Z,9.05
2022-08-27T12:12:55.157Z,7.80
2022-08-27T12:15:33.124Z,5.78
2022-08-27T12:18:11.648Z,6.85
2022-08-27T12:20:46.915Z,10.80
2022-08-27T12:23:37.934Z,7.75
2022-08-27T12:26:20.599Z,8.90
2022-08-27T12:28:50.348Z,8.30
2022-08-27T12:31:22.606Z,11.48
2022-08-27T12:33:54.816Z,7.15
2022-08-27T12:36:28.120Z,9.93
2022-08-27T12:39:03.944Z,8.95
2022-08-27T12:41:44.769Z,7.30
2022-08-27T12:44:32.269Z,9.48
2022-08-27T12:47:04.648Z,8.20
2022-08-27T12:49:39.682Z,10.90
2022-08-27T12:52:22.721Z,7.93
2022-08-27T12:55:02.439Z,9.57
2022-08-27T12:57:37.333Z,5.88
2022-08-27T13:00:15.202Z,9.10
2022-08-27T13:03:23.419Z,6.82
2022-08-27T13:05:56.890Z,6.47
2022-08-27T13:08:29.313Z,9.50
2022-08-27T13:10:59.200Z,7.28
2022-08-27T13:13:28.908Z,5.55
2022-08-27T13:16:04.613Z,10.87
2022-08-27T13:18:34.456Z,5.45
2022-08-27T13:21:06.820Z,9.05
2022-08-27T13:23:36.679Z,8.63
2022-08-27T13:26:09.465Z,6.73
2022-08-27T13:28:42.173Z,7.78
2022-08-27T13:31:14.856Z,6.20
2022-08-27T13:33:45.308Z,7.60
2022-08-27T13:36:15.003Z,7.70
2022-08-27T13:38:50.275Z,8.80
2022-08-27T13:41:26.042Z,5.30
2022-08-27T13:43:59.178Z,10.75
2022-08-27T13:46:33.950Z,6.55
2022-08-27T13:49:03.992Z,7.82
2022-08-27T13:51:35.871Z,8.70
2022-08-27T13:54:17.606Z,6.63
2022-08-27T13:57:08.505Z,10.70
2022-08-27T13:59:43.375Z,7.13
2022-08-27T14:02:29.326Z,13.63
2022-08-27T14:05:14.282Z,6.90
2022-08-27T14:07:49.178Z,4.88
2022-08-27T14:10:33.595Z,8.15
2022-08-27T14:13:05.007Z,7.15
2022-08-27T14:15:38.591Z,9.20
2022-08-27T14:18:37.184Z,11.63
2022-08-27T14:21:13.991Z,7.38
2022-08-27T14:23:43.774Z,10.50
2022-08-27T14:26:13.522Z,14.55
2022-08-27T14:28:43.254Z,13.55
2022-08-27T14:31:13.384Z,6.82
2022-08-27T14:33:47.408Z,6.68
2022-08-27T14:36:17.780Z,5.77
2022-08-27T14:38:49.344Z,10.93
2022-08-27T14:41:21.622Z,5.97
2022-08-27T14:43:51.986Z,7.80
2022-08-27T14:46:26.025Z,7.22
2022-08-27T14:49:00.069Z,8.52
2022-08-27T14:51:32.223Z,11.05
2022-08-27T14:54:01.936Z,9.40
2022-08-27T14:56:31.625Z,7.70
2022-08-27T14:59:01.341Z,9.30
2022-08-27T15:01:31.271Z,6.00
2022-08-27T15:04:03.728Z,7.18
2022-08-27T15:06:33.733Z,6.00
2022-08-27T15:09:03.989Z,6.40
2022-08-27T15:11:35.723Z,6.13
2022-08-27T15:14:07.070Z,8.85
2022-08-27T15:16:38.948Z,4.55
2022-08-27T15:19:13.640Z,7.88
2022-08-27T15:21:44.165Z,5.65
2022-08-27T15:24:18.903Z,7.45
2022-08-27T15:26:48.812Z,9.70
2022-08-27T15:29:19.173Z,8.02
2022-08-27T15:31:49.386Z,8.05
2022-08-27T15:34:21.712Z,7.00
2022-08-27T15:36:51.412Z,7.18
2022-08-27T15:39:21.078Z,10.18
2022-08-27T15:42:05.953Z,9.75
2022-08-27T15:44:36.269Z,7.60
2022-08-27T15:47:06.366Z,4.72
2022-08-27T15:49:38.738Z,7.15
2022-08-27T15:52:08.431Z,5.07
2022-08-27T15:54:38.551Z,4.70
2022-08-27T15:57:08.885Z,5.63
2022-08-27T15:59:38.540Z,5.38
2022-08-27T16:02:09.922Z,7.63
2022-08-27T16:04:42.217Z,5.07
2022-08-27T16:07:11.874Z,8.40
2022-08-27T16:09:41.630Z,7.80
2022-08-27T16:12:11.535Z,7.88
2022-08-27T16:14:56.762Z,7.50
2022-08-27T16:17:26.697Z,7.15
2022-08-27T16:19:59.078Z,6.38
2022-08-27T16:22:28.768Z,7.88
2022-08-27T16:24:58.521Z,8.60
2022-08-27T16:27:28.183Z,7.15
2022-08-27T16:29:58.517Z,5.68
2022-08-27T16:32:28.898Z,10.45
2022-08-27T16:35:01.292Z,8.85
2022-08-27T16:37:31.039Z,6.32
2022-08-27T16:40:00.825Z,7.65
2022-08-27T16:42:30.612Z,8.55
2022-08-27T16:45:00.563Z,8.60
2022-08-27T16:47:30.209Z,4.53
2022-08-27T16:50:24.361Z,6.43
2022-08-27T16:52:56.333Z,5.50
2022-08-27T16:55:26.032Z,6.90
2022-08-27T16:57:55.905Z,6.13
2022-08-27T17:00:25.868Z,9.48
2022-08-27T17:02:55.984Z,6.60
2022-08-27T17:05:34.353Z,6.55
2022-08-27T17:08:05.482Z,4.57
2022-08-27T17:10:38.099Z,8.95
2022-08-27T17:13:08.409Z,6.80
2022-08-27T17:15:39.677Z,6.45
2022-08-27T17:18:09.549Z,6.63
2022-08-27T17:20:41.857Z,6.60
2022-08-27T17:23:19.388Z,8.23
2022-08-27T17:25:49.051Z,7.25
2022-08-27T17:28:18.753Z,5.60
2022-08-27T17:30:48.687Z,5.28
2022-08-27T17:33:23.508Z,4.97
2022-08-27T17:35:56.186Z,6.43
2022-08-27T17:38:25.808Z,5.65
2022-08-27T17:40:56.022Z,6.07
2022-08-27T17:43:25.698Z,6.15
2022-08-27T17:45:55.389Z,8.82
2022-08-27T17:48:26.768Z,7.20
2022-08-27T17:50:59.246Z,6.43
2022-08-27T17:53:29.039Z,6.03
2022-08-27T17:55:58.857Z,5.72
2022-08-27T17:58:28.603Z,6.97
2022-08-27T18:00:58.255Z,6.95
2022-08-27T18:03:28.093Z,11.02
2022-08-27T18:06:00.473Z,4.55
2022-08-27T18:08:30.184Z,6.68
2022-08-27T18:11:00.215Z,9.52
2022-08-27T18:13:30.108Z,5.93
2022-08-27T18:15:59.856Z,4.57
2022-08-27T18:18:29.532Z,9.60
2022-08-27T18:21:01.836Z,6.45
2022-08-27T18:23:31.596Z,8.18
2022-08-27T18:26:01.359Z,5.20
2022-08-27T18:28:31.532Z,7.32
2022-08-27T18:31:03.589Z,4.60
2022-08-27T18:33:36.705Z,6.60
2022-08-27T18:36:09.619Z,8.20
2022-08-27T18:38:39.291Z,4.82
2022-08-27T18:41:09.375Z,4.82
2022-08-27T18:43:39.638Z,6.63
2022-08-27T18:46:09.631Z,8.07
2022-08-27T18:48:39.926Z,7.85
2022-08-27T18:51:14.399Z,9.70
2022-08-27T18:53:45.209Z,8.13
2022-08-27T18:56:16.861Z,6.85
2022-08-27T18:58:47.045Z,7.88
2022-08-27T19:01:19.113Z,8.55
2022-08-27T19:03:51.668Z,5.75
2022-08-27T19:06:24.460Z,7.68
2022-08-27T19:08:54.690Z,6.75
2022-08-27T19:11:24.352Z,8.40
2022-08-27T19:13:54.088Z,8.00
2022-08-27T19:16:27.562Z,13.40
2022-08-27T19:18:57.300Z,6.32
2022-08-27T19:21:29.569Z,8.98
2022-08-27T19:23:59.296Z,6.53
2022-08-27T19:26:29.430Z,11.87
2022-08-27T19:28:59.243Z,8.85
2022-08-27T19:31:29.241Z,6.13
2022-08-27T19:34:00.263Z,7.22
2022-08-27T19:36:32.583Z,5.57
2022-08-27T19:39:02.361Z,5.07
2022-08-27T19:41:32.284Z,8.15
2022-08-27T19:44:01.892Z,8.63
2022-08-27T19:46:32.775Z,6.25
2022-08-27T19:49:02.444Z,6.30
2022-08-27T19:51:35.038Z,7.28
2022-08-27T19:54:04.757Z,5.05
2022-08-27T19:56:34.632Z,5.93
2022-08-27T19:59:18.929Z,11.40
2022-08-27T20:01:52.776Z,6.10
2022-08-27T20:04:23.001Z,6.72
2022-08-27T20:06:55.420Z,4.78
2022-08-27T20:09:25.689Z,9.27
2022-08-27T20:11:55.381Z,4.45
2022-08-27T20:14:25.038Z,7.03
2022-08-27T20:16:54.697Z,5.00
2022-08-27T20:19:24.339Z,5.43
2022-08-27T20:21:56.615Z,11.43
2022-08-27T20:24:26.276Z,6.32
2022-08-27T20:26:56.910Z,11.30
2022-08-27T20:29:32.498Z,8.90
2022-08-27T20:32:02.781Z,8.43
2022-08-27T20:34:33.506Z,10.15
2022-08-27T20:37:07.611Z,9.82
2022-08-27T20:39:37.317Z,7.40
2022-08-27T20:42:07.785Z,8.65
2022-08-27T20:44:37.483Z,6.38
2022-08-27T20:47:08.127Z,6.10
2022-08-27T20:49:39.970Z,7.07
2022-08-27T20:52:13.070Z,5.38
2022-08-27T20:54:42.908Z,6.13
2022-08-27T20:57:12.685Z,7.35
2022-08-27T20:59:55.271Z,9.60
2022-08-27T21:02:26.945Z,7.25
2022-08-27T21:04:57.496Z,7.13
2022-08-27T21:07:29.790Z,8.48
2022-08-27T21:09:59.496Z,7.25
2022-08-27T21:12:29.743Z,11.83
2022-08-27T21:14:59.742Z,8.52
2022-08-27T21:17:31.011Z,7.13
2022-08-27T21:20:00.671Z,5.95
2022-08-27T21:22:32.953Z,8.00
2022-08-27T21:25:02.671Z,6.60
2022-08-27T21:27:32.332Z,8.27
2022-08-27T21:30:02.209Z,6.10
2022-08-27T21:32:31.906Z,7.57
2022-08-27T21:35:02.243Z,5.40
2022-08-27T21:37:34.526Z,6.95
2022-08-27T21:40:04.675Z,6.15
2022-08-27T21:42:34.567Z,6.82
2022-08-27T21:45:04.233Z,10.60
2022-08-27T21:47:33.995Z,7.80
2022-08-27T21:50:03.672Z,7.20
2022-08-27T21:52:36.548Z,8.52
2022-08-27T21:55:07.325Z,4.80
2022-08-27T21:57:37.099Z,7.63
2022-08-27T22:00:18.577Z,9.65
2022-08-27T22:02:48.283Z,6.28
2022-08-27T22:05:18.037Z,6.85
2022-08-27T22:07:50.492Z,9.63
2022-08-27T22:10:20.188Z,10.07
2022-08-27T22:12:49.862Z,5.28
2022-08-27T22:15:22.735Z,6.93
2022-08-27T22:17:53.071Z,6.25
2022-08-27T22:20:23.253Z,8.95
2022-08-27T22:22:57.044Z,5.90
2022-08-27T22:25:27.138Z,9.60
2022-08-27T22:27:57.308Z,13.05
2022-08-27T22:30:27.018Z,8.52
2022-08-27T22:32:57.047Z,8.30
2022-08-27T22:35:27.240Z,9.05
2022-08-27T22:38:01.458Z,5.30
2022-08-27T22:40:33.675Z,5.50
2022-08-27T22:43:04.072Z,6.22
2022-08-27T22:45:34.515Z,6.85
2022-08-27T22:48:04.350Z,8.15
2022-08-27T22:50:34.074Z,5.60
2022-08-27T22:53:06.431Z,14.20
2022-08-27T22:55:36.136Z,8.48
2022-08-27T22:58:06.151Z,5.60
2022-08-27T23:00:37.947Z,8.93
2022-08-27T23:03:09.260Z,7.38
2022-08-27T23:05:40.279Z,8.60
2022-08-27T23:08:15.261Z,6.47
2022-08-27T23:10:46.058Z,6.68
2022-08-27T23:13:15.746Z,7.30
2022-08-27T23:15:45.439Z,7.55
2022-08-27T23:18:15.149Z,7.13
2022-08-27T23:20:44.835Z,3.95
2022-08-27T23:23:17.428Z,7.60
2022-08-27T23:26:02.324Z,11.98
2022-08-27T23:28:32.209Z,11.18
2022-08-27T23:31:02.430Z,7.63
2022-08-27T23:33:32.197Z,13.87
2022-08-27T23:36:01.961Z,11.48
2022-08-27T23:38:34.248Z,9.82
2022-08-27T23:41:03.938Z,12.73
2022-08-27T23:43:33.615Z,10.63
2022-08-27T23:46:03.370Z,10.10
2022-08-27T23:48:33.102Z,11.93
2022-08-27T23:51:02.900Z,12.95
2022-08-27T23:53:35.113Z,8.43
2022-08-27T23:56:04.957Z,8.43
2022-08-27T23:58:34.679Z,11.27
